Aeroporto :
LOGIN :

Iscrizione | Disclaimer

   EN    FR    IT 

 










Sommario :    VFR   VFR Marginale   IFR   IFR Intensivo   IFR Molto Intensivo
Visibilità : 
Base nubi : 
>= 8 km
>= 3000ft
5 / 8 km
1000 / 3000 ft
1500m / 5 km
500 / 1000 ft
800 / 1500m
200 / 500 ft
< 800m
< 200 ft
Simboli :   Temporali  Nebbia  Neve Forte  Precipitazioni Forti  Vento > 20 kt
SIGMETs :   Varie  Temporali  Ghiacco  Turbolenza  Onda orograficha  Ceneri Vulcaniche






- Altitudine del aeroporto : 325 ft
- Codice IATA : BES


LFRB - Brest

ULTIMO METAR :
  • 181730Z AUTO 02009KT 340V050 9999 BKN015 BKN042 18/14 Q1014 TEMPO 4000 SHRA BKN009

METARs OBSOLETI :
  • 181700Z AUTO 03010KT 350V060 9999 BKN018 BKN040 OVC056 18/14 Q1014 NOSIG
  • 181630Z AUTO 04011KT 9999 FEW019 SCT025 BKN041 18/13 Q1014 NOSIG
  • 181600Z AUTO 03012KT 350V050 9999 BKN015 BKN025 OVC040 17/14 Q1014 TEMPO 4000 -SHRA BKN008 BKN020TCU
  • 181530Z AUTO 02012KT 350V050 9999 OVC011 16/14 Q1014 TEMPO 4000 -SHRA BKN010 BKN020TCU
  • 181500Z AUTO 03011KT 360V060 9999 OVC008 16/14 Q1014 TEMPO 4000 -SHRA BKN010 BKN020TCU
  • 181430Z AUTO 02009KT 360V060 9999 OVC009 16/14 Q1014 TEMPO 3000 SHRA BKN020TCU
  • 181400Z AUTO 02011KT 9999 BKN010 OVC014 16/14 Q1014 TEMPO 3000 SHRA BKN020TCU
  • 181330Z AUTO 03011KT 350V050 9999 OVC012 17/15 Q1014 TEMPO 3000 SHRA BKN020TCU
  • 181300Z AUTO 04012KT 360V060 9999 OVC012 18/15 Q1014 TEMPO 3000 SHRA BKN020TCU

TAF TAF LFRB
Valido dal 18 a 18 ore il 20 a 00 ore UTC


181700Z 1818/1924 02010KT 9999 BKN016
PROB30
TEMPO 1818/1820 4000 SHRA BKN009
TEMPO 1906/1908 BKN009
TEMPO 1908/1910 BKN014
BECMG 1909/1911 04015G28KT
PROB40
TEMPO 1917/1924 4000 SHRA
ATIS : +33 2 98 32 02 71



MetMap, La meteo Aeronautica in un colpo d'occhio ! - Copyright ORBIFLY Dicembre 2007 - Disclaimer

ORBIFLY MET'MAP TEAM :

Programmazione e sviluppo : Alexandra Zaïnal
Concezione : Baudouin d'Aumeries
Supporto tecnico e logistico : Manuel Goepfert
Aiuto : Marc-Olivier Méhu
Aiuto per la traduzione : Arnaldo La Scala




FONTI E CREDITI :

   NOAA